sensor_id;sensor_type;location;lat;lon;timestamp;temperature;humidity
11214;DHT22;5664;48.606;13.456;2023-05-01T00:01:06;22.50;58.40
11214;DHT22;5664;48.606;13.456;2023-05-01T00:03:32;22.50;58.40
11214;DHT22;5664;48.606;13.456;2023-05-01T00:05:58;22.50;58.40
11214;DHT22;5664;48.606;13.456;2023-05-01T00:08:24;22.50;58.40
11214;DHT22;5664;48.606;13.456;2023-05-01T00:10:49;21.90;58.10
11214;DHT22;5664;48.606;13.456;2023-05-01T00:13:15;22.40;58.40
11214;DHT22;5664;48.606;13.456;2023-05-01T00:15:42;22.40;58.40
11214;DHT22;5664;48.606;13.456;2023-05-01T00:18:07;22.40;58.40
11214;DHT22;5664;48.606;13.456;2023-05-01T00:20:33;22.40;58.40
11214;DHT22;5664;48.606;13.456;2023-05-01T00:22:58;22.50;58.40
11214;DHT22;5664;48.606;13.456;2023-05-01T00:25:23;22.40;58.30
11214;DHT22;5664;48.606;13.456;2023-05-01T00:27:49;22.50;58.40
11214;DHT22;5664;48.606;13.456;2023-05-01T00:30:14;22.50;58.30
11214;DHT22;5664;48.606;13.456;2023-05-01T00:32:40;22.50;58.30
11214;DHT22;5664;48.606;13.456;2023-05-01T00:35:05;22.50;58.20
11214;DHT22;5664;48.606;13.456;2023-05-01T00:37:31;22.50;58.20
11214;DHT22;5664;48.606;13.456;2023-05-01T00:39:57;22.50;58.10
11214;DHT22;5664;48.606;13.456;2023-05-01T00:42:22;22.50;58.10
11214;DHT22;5664;48.606;13.456;2023-05-01T00:44:48;22.50;58.00
11214;DHT22;5664;48.606;13.456;2023-05-01T00:47:13;22.50;58.00
11214;DHT22;5664;48.606;13.456;2023-05-01T00:49:40;22.60;58.10
11214;DHT22;5664;48.606;13.456;2023-05-01T00:52:06;22.60;58.00
11214;DHT22;5664;48.606;13.456;2023-05-01T00:54:34;22.60;58.60
11214;DHT22;5664;48.606;13.456;2023-05-01T00:57:00;22.60;57.90
11214;DHT22;5664;48.606;13.456;2023-05-01T00:59:25;22.60;57.80
11214;DHT22;5664;48.606;13.456;2023-05-01T01:01:50;22.60;57.80
11214;DHT22;5664;48.606;13.456;2023-05-01T01:04:16;22.70;57.70
11214;DHT22;5664;48.606;13.456;2023-05-01T01:06:46;22.70;57.70
11214;DHT22;5664;48.606;13.456;2023-05-01T01:09:18;22.70;57.60
11214;DHT22;5664;48.606;13.456;2023-05-01T01:11:52;22.70;57.60
11214;DHT22;5664;48.606;13.456;2023-05-01T01:14:20;22.80;57.50
11214;DHT22;5664;48.606;13.456;2023-05-01T01:17:11;22.80;57.50
11214;DHT22;5664;48.606;13.456;2023-05-01T01:22:22;22.80;57.30
11214;DHT22;5664;48.606;13.456;2023-05-01T01:24:55;22.80;57.30
11214;DHT22;5664;48.606;13.456;2023-05-01T01:27:32;22.80;57.20
11214;DHT22;5664;48.606;13.456;2023-05-01T01:35:28;22.80;57.10
11214;DHT22;5664;48.606;13.456;2023-05-01T01:40:24;22.90;57.10
11214;DHT22;5664;48.606;13.456;2023-05-01T01:42:51;22.90;57.10
11214;DHT22;5664;48.606;13.456;2023-05-01T01:45:20;22.90;57.10
11214;DHT22;5664;48.606;13.456;2023-05-01T01:47:47;22.80;57.10
11214;DHT22;5664;48.606;13.456;2023-05-01T01:50:13;22.80;57.00
11214;DHT22;5664;48.606;13.456;2023-05-01T01:52:40;22.80;57.00
11214;DHT22;5664;48.606;13.456;2023-05-01T01:55:08;22.90;57.10
11214;DHT22;5664;48.606;13.456;2023-05-01T01:57:35;22.80;57.00
11214;DHT22;5664;48.606;13.456;2023-05-01T02:00:02;22.90;57.00
11214;DHT22;5664;48.606;13.456;2023-05-01T02:02:33;22.90;57.00
11214;DHT22;5664;48.606;13.456;2023-05-01T02:05:00;22.90;57.00
11214;DHT22;5664;48.606;13.456;2023-05-01T02:07:26;22.90;57.00
11214;DHT22;5664;48.606;13.456;2023-05-01T02:09:53;22.90;57.00
11214;DHT22;5664;48.606;13.456;2023-05-01T02:12:19;22.90;57.00
11214;DHT22;5664;48.606;13.456;2023-05-01T02:14:45;22.90;56.90
11214;DHT22;5664;48.606;13.456;2023-05-01T02:17:12;22.90;56.90
11214;DHT22;5664;48.606;13.456;2023-05-01T02:19:39;22.90;56.90
11214;DHT22;5664;48.606;13.456;2023-05-01T02:22:05;22.90;56.90
11214;DHT22;5664;48.606;13.456;2023-05-01T02:24:31;22.90;56.90
11214;DHT22;5664;48.606;13.456;2023-05-01T02:26:59;22.90;56.80
11214;DHT22;5664;48.606;13.456;2023-05-01T02:29:27;22.90;56.90
11214;DHT22;5664;48.606;13.456;2023-05-01T02:31:53;22.90;56.90
11214;DHT22;5664;48.606;13.456;2023-05-01T02:34:18;22.80;56.80
11214;DHT22;5664;48.606;13.456;2023-05-01T02:36:44;22.80;56.90
11214;DHT22;5664;48.606;13.456;2023-05-01T02:39:09;22.80;56.90
11214;DHT22;5664;48.606;13.456;2023-05-01T02:41:35;22.80;56.90
11214;DHT22;5664;48.606;13.456;2023-05-01T02:44:01;22.80;56.90
11214;DHT22;5664;48.606;13.456;2023-05-01T02:46:29;22.80;56.90
11214;DHT22;5664;48.606;13.456;2023-05-01T02:48:56;22.80;56.90
11214;DHT22;5664;48.606;13.456;2023-05-01T02:51:23;22.80;56.90
11214;DHT22;5664;48.606;13.456;2023-05-01T02:53:49;23.00;57.00
11214;DHT22;5664;48.606;13.456;2023-05-01T02:56:14;22.80;56.80
11214;DHT22;5664;48.606;13.456;2023-05-01T02:58:40;22.80;56.80
11214;DHT22;5664;48.606;13.456;2023-05-01T03:01:06;22.80;56.80
11214;DHT22;5664;48.606;13.456;2023-05-01T03:03:31;22.80;56.80
11214;DHT22;5664;48.606;13.456;2023-05-01T03:05:57;22.80;56.80
11214;DHT22;5664;48.606;13.456;2023-05-01T03:08:22;22.80;56.80
11214;DHT22;5664;48.606;13.456;2023-05-01T03:10:48;22.80;56.80
11214;DHT22;5664;48.606;13.456;2023-05-01T03:13:13;22.80;56.70
11214;DHT22;5664;48.606;13.456;2023-05-01T03:15:39;22.80;56.80
11214;DHT22;5664;48.606;13.456;2023-05-01T03:18:04;22.80;56.70
11214;DHT22;5664;48.606;13.456;2023-05-01T03:20:30;22.80;56.80
11214;DHT22;5664;48.606;13.456;2023-05-01T03:22:56;22.80;56.80
11214;DHT22;5664;48.606;13.456;2023-05-01T03:25:21;22.80;56.80
11214;DHT22;5664;48.606;13.456;2023-05-01T03:27:47;22.80;56.70
11214;DHT22;5664;48.606;13.456;2023-05-01T03:30:13;22.80;56.70
11214;DHT22;5664;48.606;13.456;2023-05-01T03:32:39;22.80;56.60
11214;DHT22;5664;48.606;13.456;2023-05-01T03:35:04;22.90;56.60
11214;DHT22;5664;48.606;13.456;2023-05-01T03:37:30;22.90;56.60
11214;DHT22;5664;48.606;13.456;2023-05-01T03:39:55;22.90;56.60
11214;DHT22;5664;48.606;13.456;2023-05-01T03:42:21;22.80;56.50
11214;DHT22;5664;48.606;13.456;2023-05-01T03:44:46;22.90;56.60
11214;DHT22;5664;48.606;13.456;2023-05-01T03:47:12;22.90;56.60
11214;DHT22;5664;48.606;13.456;2023-05-01T03:49:37;22.80;56.60
11214;DHT22;5664;48.606;13.456;2023-05-01T03:52:03;22.80;57.20
11214;DHT22;5664;48.606;13.456;2023-05-01T03:54:28;22.80;56.50
11214;DHT22;5664;48.606;13.456;2023-05-01T03:56:54;22.80;56.60
11214;DHT22;5664;48.606;13.456;2023-05-01T03:59:19;22.80;56.60
11214;DHT22;5664;48.606;13.456;2023-05-01T04:01:45;22.80;56.60
11214;DHT22;5664;48.606;13.456;2023-05-01T04:04:10;22.80;56.60
11214;DHT22;5664;48.606;13.456;2023-05-01T04:06:36;22.80;56.60
11214;DHT22;5664;48.606;13.456;2023-05-01T04:09:01;22.80;56.60
11214;DHT22;5664;48.606;13.456;2023-05-01T04:11:27;22.80;56.60
11214;DHT22;5664;48.606;13.456;2023-05-01T04:13:52;22.80;56.60
11214;DHT22;5664;48.606;13.456;2023-05-01T04:16:18;22.80;56.60
11214;DHT22;5664;48.606;13.456;2023-05-01T04:18:43;22.80;56.60
11214;DHT22;5664;48.606;13.456;2023-05-01T04:21:09;22.80;56.60
11214;DHT22;5664;48.606;13.456;2023-05-01T04:23:34;22.80;56.60
11214;DHT22;5664;48.606;13.456;2023-05-01T04:26:00;22.90;56.50
11214;DHT22;5664;48.606;13.456;2023-05-01T04:28:25;23.00;56.40
11214;DHT22;5664;48.606;13.456;2023-05-01T04:30:52;23.10;56.10
11214;DHT22;5664;48.606;13.456;2023-05-01T04:33:17;23.30;55.80
11214;DHT22;5664;48.606;13.456;2023-05-01T04:35:42;23.40;55.50
11214;DHT22;5664;48.606;13.456;2023-05-01T04:38:08;23.50;55.20
11214;DHT22;5664;48.606;13.456;2023-05-01T04:40:36;23.60;54.90
11214;DHT22;5664;48.606;13.456;2023-05-01T04:43:01;23.80;54.60
11214;DHT22;5664;48.606;13.456;2023-05-01T04:45:27;23.90;54.30
11214;DHT22;5664;48.606;13.456;2023-05-01T04:47:52;24.00;54.10
11214;DHT22;5664;48.606;13.456;2023-05-01T04:50:18;23.30;53.60
11214;DHT22;5664;48.606;13.456;2023-05-01T04:52:43;24.20;53.80
11214;DHT22;5664;48.606;13.456;2023-05-01T04:55:09;24.20;53.60
11214;DHT22;5664;48.606;13.456;2023-05-01T04:57:34;24.30;53.50
11214;DHT22;5664;48.606;13.456;2023-05-01T05:00:00;24.30;53.30
11214;DHT22;5664;48.606;13.456;2023-05-01T05:02:26;24.40;53.20
11214;DHT22;5664;48.606;13.456;2023-05-01T05:04:51;24.40;53.10
11214;DHT22;5664;48.606;13.456;2023-05-01T05:07:21;24.40;53.00
11214;DHT22;5664;48.606;13.456;2023-05-01T05:09:46;24.50;53.00
11214;DHT22;5664;48.606;13.456;2023-05-01T05:12:12;24.50;52.90
11214;DHT22;5664;48.606;13.456;2023-05-01T05:14:39;24.50;52.80
11214;DHT22;5664;48.606;13.456;2023-05-01T05:17:05;24.50;52.80
11214;DHT22;5664;48.606;13.456;2023-05-01T05:19:30;24.60;52.80
11214;DHT22;5664;48.606;13.456;2023-05-01T05:21:55;24.60;52.70
11214;DHT22;5664;48.606;13.456;2023-05-01T05:24:21;24.60;52.70
11214;DHT22;5664;48.606;13.456;2023-05-01T05:26:46;24.60;53.20
11214;DHT22;5664;48.606;13.456;2023-05-01T05:29:12;24.60;52.60
11214;DHT22;5664;48.606;13.456;2023-05-01T05:31:37;24.60;52.60
11214;DHT22;5664;48.606;13.456;2023-05-01T05:34:03;24.70;52.60
11214;DHT22;5664;48.606;13.456;2023-05-01T05:36:28;24.70;52.60
11214;DHT22;5664;48.606;13.456;2023-05-01T05:38:54;24.70;52.50
11214;DHT22;5664;48.606;13.456;2023-05-01T05:41:19;24.70;52.60
11214;DHT22;5664;48.606;13.456;2023-05-01T05:43:45;24.70;52.60
11214;DHT22;5664;48.606;13.456;2023-05-01T05:46:11;24.60;52.60
11214;DHT22;5664;48.606;13.456;2023-05-01T05:48:36;24.70;52.60
11214;DHT22;5664;48.606;13.456;2023-05-01T05:51:02;24.70;52.60
11214;DHT22;5664;48.606;13.456;2023-05-01T05:53:27;24.70;52.60
11214;DHT22;5664;48.606;13.456;2023-05-01T05:55:53;24.70;52.60
11214;DHT22;5664;48.606;13.456;2023-05-01T05:58:18;24.70;52.60
11214;DHT22;5664;48.606;13.456;2023-05-01T06:00:45;24.70;52.60
11214;DHT22;5664;48.606;13.456;2023-05-01T06:03:10;24.70;52.60
11214;DHT22;5664;48.606;13.456;2023-05-01T06:05:36;24.70;52.60
11214;DHT22;5664;48.606;13.456;2023-05-01T06:08:01;24.70;52.50
11214;DHT22;5664;48.606;13.456;2023-05-01T06:10:27;24.70;52.40
11214;DHT22;5664;48.606;13.456;2023-05-01T06:12:52;24.70;52.40
11214;DHT22;5664;48.606;13.456;2023-05-01T06:15:18;24.70;52.20
11214;DHT22;5664;48.606;13.456;2023-05-01T06:17:43;24.60;52.10
11214;DHT22;5664;48.606;13.456;2023-05-01T06:20:09;24.60;52.00
11214;DHT22;5664;48.606;13.456;2023-05-01T06:22:34;24.60;51.90
11214;DHT22;5664;48.606;13.456;2023-05-01T06:25:00;24.50;51.80
11214;DHT22;5664;48.606;13.456;2023-05-01T06:27:25;24.50;51.80
11214;DHT22;5664;48.606;13.456;2023-05-01T06:29:51;24.40;51.80
11214;DHT22;5664;48.606;13.456;2023-05-01T06:32:16;24.40;51.80
11214;DHT22;5664;48.606;13.456;2023-05-01T06:34:42;24.40;51.80
11214;DHT22;5664;48.606;13.456;2023-05-01T06:37:07;24.30;51.80
11214;DHT22;5664;48.606;13.456;2023-05-01T06:39:33;24.20;51.90
11214;DHT22;5664;48.606;13.456;2023-05-01T06:41:58;24.20;52.00
11214;DHT22;5664;48.606;13.456;2023-05-01T06:44:24;24.10;52.10
11214;DHT22;5664;48.606;13.456;2023-05-01T06:46:49;24.10;52.20
11214;DHT22;5664;48.606;13.456;2023-05-01T06:49:15;24.00;50.70
11214;DHT22;5664;48.606;13.456;2023-05-01T06:51:40;24.00;50.10
11214;DHT22;5664;48.606;13.456;2023-05-01T06:54:05;23.90;49.70
11214;DHT22;5664;48.606;13.456;2023-05-01T06:56:31;23.90;48.80
11214;DHT22;5664;48.606;13.456;2023-05-01T06:58:57;23.80;48.40
11214;DHT22;5664;48.606;13.456;2023-05-01T07:01:22;23.80;48.20
11214;DHT22;5664;48.606;13.456;2023-05-01T07:03:47;23.80;48.40
11214;DHT22;5664;48.606;13.456;2023-05-01T07:06:13;23.70;49.80
11214;DHT22;5664;48.606;13.456;2023-05-01T07:08:38;23.70;50.50
11214;DHT22;5664;48.606;13.456;2023-05-01T07:11:04;23.70;50.80
11214;DHT22;5664;48.606;13.456;2023-05-01T07:13:30;23.60;50.90
11214;DHT22;5664;48.606;13.456;2023-05-01T07:15:55;23.60;51.30
11214;DHT22;5664;48.606;13.456;2023-05-01T07:18:20;23.60;51.60
11214;DHT22;5664;48.606;13.456;2023-05-01T07:20:46;23.60;51.60
11214;DHT22;5664;48.606;13.456;2023-05-01T07:23:14;23.50;51.60
11214;DHT22;5664;48.606;13.456;2023-05-01T07:25:39;23.50;52.00
11214;DHT22;5664;48.606;13.456;2023-05-01T07:28:09;23.50;52.20
11214;DHT22;5664;48.606;13.456;2023-05-01T07:30:35;23.40;51.80
11214;DHT22;5664;48.606;13.456;2023-05-01T07:33:00;23.40;51.60
11214;DHT22;5664;48.606;13.456;2023-05-01T07:35:26;23.40;51.60
11214;DHT22;5664;48.606;13.456;2023-05-01T07:37:51;23.40;51.30
11214;DHT22;5664;48.606;13.456;2023-05-01T07:40:17;23.30;50.90
11214;DHT22;5664;48.606;13.456;2023-05-01T07:42:43;23.30;51.30
11214;DHT22;5664;48.606;13.456;2023-05-01T07:45:08;23.30;51.80
11214;DHT22;5664;48.606;13.456;2023-05-01T07:47:34;23.30;52.10
11214;DHT22;5664;48.606;13.456;2023-05-01T07:50:01;23.30;52.20
11214;DHT22;5664;48.606;13.456;2023-05-01T07:52:27;23.30;51.20
11214;DHT22;5664;48.606;13.456;2023-05-01T07:54:52;23.30;51.30
11214;DHT22;5664;48.606;13.456;2023-05-01T07:57:18;23.20;51.50
11214;DHT22;5664;48.606;13.456;2023-05-01T07:59:44;23.20;51.50
11214;DHT22;5664;48.606;13.456;2023-05-01T08:02:09;23.20;51.60
11214;DHT22;5664;48.606;13.456;2023-05-01T08:04:35;23.20;51.30
11214;DHT22;5664;48.606;13.456;2023-05-01T08:07:00;23.20;51.50
11214;DHT22;5664;48.606;13.456;2023-05-01T08:09:26;23.20;51.80
11214;DHT22;5664;48.606;13.456;2023-05-01T08:11:51;23.20;51.90
11214;DHT22;5664;48.606;13.456;2023-05-01T08:14:17;23.10;52.10
11214;DHT22;5664;48.606;13.456;2023-05-01T08:16:43;23.10;52.40
11214;DHT22;5664;48.606;13.456;2023-05-01T08:19:09;23.10;52.50
11214;DHT22;5664;48.606;13.456;2023-05-01T08:21:34;23.10;52.60
11214;DHT22;5664;48.606;13.456;2023-05-01T08:24:00;23.10;52.50
11214;DHT22;5664;48.606;13.456;2023-05-01T08:26:25;23.10;52.50
11214;DHT22;5664;48.606;13.456;2023-05-01T08:28:51;23.00;52.50
11214;DHT22;5664;48.606;13.456;2023-05-01T08:31:16;23.00;52.50
11214;DHT22;5664;48.606;13.456;2023-05-01T08:33:43;23.00;52.50
11214;DHT22;5664;48.606;13.456;2023-05-01T08:36:09;23.00;52.40
11214;DHT22;5664;48.606;13.456;2023-05-01T08:38:35;23.00;52.30
11214;DHT22;5664;48.606;13.456;2023-05-01T08:41:00;23.00;52.30
11214;DHT22;5664;48.606;13.456;2023-05-01T08:43:31;22.90;52.30
11214;DHT22;5664;48.606;13.456;2023-05-01T08:46:00;22.90;52.30
11214;DHT22;5664;48.606;13.456;2023-05-01T08:48:26;22.90;52.30
11214;DHT22;5664;48.606;13.456;2023-05-01T08:50:52;22.80;52.30
11214;DHT22;5664;48.606;13.456;2023-05-01T08:53:19;22.80;52.40
11214;DHT22;5664;48.606;13.456;2023-05-01T08:55:46;22.70;52.50
11214;DHT22;5664;48.606;13.456;2023-05-01T08:58:13;22.60;52.60
11214;DHT22;5664;48.606;13.456;2023-05-01T09:00:39;22.50;52.80
11214;DHT22;5664;48.606;13.456;2023-05-01T09:03:05;22.40;53.00
11214;DHT22;5664;48.606;13.456;2023-05-01T09:05:31;22.30;53.20
11214;DHT22;5664;48.606;13.456;2023-05-01T09:07:57;22.20;53.30
11214;DHT22;5664;48.606;13.456;2023-05-01T09:10:23;22.10;53.50
11214;DHT22;5664;48.606;13.456;2023-05-01T09:12:53;22.00;53.70
11214;DHT22;5664;48.606;13.456;2023-05-01T09:15:20;21.90;53.90
11214;DHT22;5664;48.606;13.456;2023-05-01T09:17:45;21.80;54.10
11214;DHT22;5664;48.606;13.456;2023-05-01T09:20:11;21.70;54.20
11214;DHT22;5664;48.606;13.456;2023-05-01T09:22:37;21.60;54.40
11214;DHT22;5664;48.606;13.456;2023-05-01T09:25:02;21.50;54.50
11214;DHT22;5664;48.606;13.456;2023-05-01T09:27:31;21.40;54.70
11214;DHT22;5664;48.606;13.456;2023-05-01T09:29:57;21.30;54.90
11214;DHT22;5664;48.606;13.456;2023-05-01T09:32:24;21.20;55.00
11214;DHT22;5664;48.606;13.456;2023-05-01T09:34:51;21.10;55.10
11214;DHT22;5664;48.606;13.456;2023-05-01T09:37:26;21.00;55.30
11214;DHT22;5664;48.606;13.456;2023-05-01T09:42:26;20.90;55.80
11214;DHT22;5664;48.606;13.456;2023-05-01T09:44:52;20.80;55.80
11214;DHT22;5664;48.606;13.456;2023-05-01T09:47:21;20.80;55.80
11214;DHT22;5664;48.606;13.456;2023-05-01T09:49:47;20.70;56.00
11214;DHT22;5664;48.606;13.456;2023-05-01T09:52:13;20.70;56.10
11214;DHT22;5664;48.606;13.456;2023-05-01T09:54:39;20.60;56.20
11214;DHT22;5664;48.606;13.456;2023-05-01T09:57:05;20.50;56.30
11214;DHT22;5664;48.606;13.456;2023-05-01T09:59:31;20.50;56.40
11214;DHT22;5664;48.606;13.456;2023-05-01T10:01:58;20.40;56.40
11214;DHT22;5664;48.606;13.456;2023-05-01T10:04:30;20.40;56.50
11214;DHT22;5664;48.606;13.456;2023-05-01T10:06:56;20.40;57.10
11214;DHT22;5664;48.606;13.456;2023-05-01T10:09:26;20.30;56.60
11214;DHT22;5664;48.606;13.456;2023-05-01T10:11:52;20.30;56.80
11214;DHT22;5664;48.606;13.456;2023-05-01T10:14:18;20.20;57.00
11214;DHT22;5664;48.606;13.456;2023-05-01T10:16:44;20.20;57.10
11214;DHT22;5664;48.606;13.456;2023-05-01T10:19:11;20.20;57.30
11214;DHT22;5664;48.606;13.456;2023-05-01T10:21:36;20.10;57.40
11214;DHT22;5664;48.606;13.456;2023-05-01T10:24:02;20.10;57.50
11214;DHT22;5664;48.606;13.456;2023-05-01T10:26:28;20.10;57.60
11214;DHT22;5664;48.606;13.456;2023-05-01T10:28:54;20.10;57.60
11214;DHT22;5664;48.606;13.456;2023-05-01T10:31:21;20.00;57.70
11214;DHT22;5664;48.606;13.456;2023-05-01T10:33:46;20.00;57.80
11214;DHT22;5664;48.606;13.456;2023-05-01T10:36:14;20.00;57.90
11214;DHT22;5664;48.606;13.456;2023-05-01T10:38:42;20.00;58.00
11214;DHT22;5664;48.606;13.456;2023-05-01T10:41:12;19.90;58.10
11214;DHT22;5664;48.606;13.456;2023-05-01T10:43:38;19.90;58.20
11214;DHT22;5664;48.606;13.456;2023-05-01T10:48:51;19.90;58.50
11214;DHT22;5664;48.606;13.456;2023-05-01T10:51:23;19.80;58.40
11214;DHT22;5664;48.606;13.456;2023-05-01T10:54:34;19.80;58.50
11214;DHT22;5664;48.606;13.456;2023-05-01T10:59:00;19.80;58.60
11214;DHT22;5664;48.606;13.456;2023-05-01T11:01:35;19.80;58.70
11214;DHT22;5664;48.606;13.456;2023-05-01T11:04:48;19.80;58.80
11214;DHT22;5664;48.606;13.456;2023-05-01T11:12:07;19.80;59.10
11214;DHT22;5664;48.606;13.456;2023-05-01T11:17:43;19.80;59.20
11214;DHT22;5664;48.606;13.456;2023-05-01T11:20:02;19.70;59.20
11214;DHT22;5664;48.606;13.456;2023-05-01T11:22:28;19.70;59.30
11214;DHT22;5664;48.606;13.456;2023-05-01T11:24:54;19.70;59.30
11214;DHT22;5664;48.606;13.456;2023-05-01T11:27:19;19.70;59.30
11214;DHT22;5664;48.606;13.456;2023-05-01T11:29:46;19.70;59.40
11214;DHT22;5664;48.606;13.456;2023-05-01T11:32:17;19.70;59.50
11214;DHT22;5664;48.606;13.456;2023-05-01T11:34:43;19.70;59.60
11214;DHT22;5664;48.606;13.456;2023-05-01T11:37:08;19.70;59.60
11214;DHT22;5664;48.606;13.456;2023-05-01T11:39:34;19.70;60.50
11214;DHT22;5664;48.606;13.456;2023-05-01T11:42:06;19.70;59.80
11214;DHT22;5664;48.606;13.456;2023-05-01T11:44:31;19.70;59.90
11214;DHT22;5664;48.606;13.456;2023-05-01T11:46:57;19.60;60.00
11214;DHT22;5664;48.606;13.456;2023-05-01T11:49:28;19.70;60.40
11214;DHT22;5664;48.606;13.456;2023-05-01T11:51:57;19.60;60.20
11214;DHT22;5664;48.606;13.456;2023-05-01T11:54:23;19.60;60.30
11214;DHT22;5664;48.606;13.456;2023-05-01T11:56:56;19.70;60.60
11214;DHT22;5664;48.606;13.456;2023-05-01T11:59:21;19.60;60.60
11214;DHT22;5664;48.606;13.456;2023-05-01T12:01:47;19.60;60.60
11214;DHT22;5664;48.606;13.456;2023-05-01T12:04:21;19.60;60.70
11214;DHT22;5664;48.606;13.456;2023-05-01T12:06:47;19.60;60.70
11214;DHT22;5664;48.606;13.456;2023-05-01T12:11:42;19.60;60.90
11214;DHT22;5664;48.606;13.456;2023-05-01T12:14:08;19.60;60.90
11214;DHT22;5664;48.606;13.456;2023-05-01T12:16:34;19.60;61.00
11214;DHT22;5664;48.606;13.456;2023-05-01T12:18:59;19.60;61.10
11214;DHT22;5664;48.606;13.456;2023-05-01T12:21:25;19.60;61.10
11214;DHT22;5664;48.606;13.456;2023-05-01T12:23:52;19.60;61.20
11214;DHT22;5664;48.606;13.456;2023-05-01T12:26:21;19.50;61.20
11214;DHT22;5664;48.606;13.456;2023-05-01T12:28:56;19.60;61.30
11214;DHT22;5664;48.606;13.456;2023-05-01T12:31:23;19.60;61.30
11214;DHT22;5664;48.606;13.456;2023-05-01T12:33:52;19.50;61.40
11214;DHT22;5664;48.606;13.456;2023-05-01T12:36:18;19.50;62.20
11214;DHT22;5664;48.606;13.456;2023-05-01T12:38:52;19.50;61.60
11214;DHT22;5664;48.606;13.456;2023-05-01T12:41:19;19.50;61.60
11214;DHT22;5664;48.606;13.456;2023-05-01T12:43:45;19.50;61.60
11214;DHT22;5664;48.606;13.456;2023-05-01T12:46:12;19.50;61.70
11214;DHT22;5664;48.606;13.456;2023-05-01T12:48:38;19.50;61.70
11214;DHT22;5664;48.606;13.456;2023-05-01T12:51:04;19.50;61.70
11214;DHT22;5664;48.606;13.456;2023-05-01T12:53:30;19.50;61.90
11214;DHT22;5664;48.606;13.456;2023-05-01T12:55:57;19.50;62.00
11214;DHT22;5664;48.606;13.456;2023-05-01T12:58:23;19.50;62.00
11214;DHT22;5664;48.606;13.456;2023-05-01T13:00:49;19.50;62.00
11214;DHT22;5664;48.606;13.456;2023-05-01T13:03:22;19.50;62.00
11214;DHT22;5664;48.606;13.456;2023-05-01T13:05:55;19.50;62.00
11214;DHT22;5664;48.606;13.456;2023-05-01T13:10:59;19.40;62.20
11214;DHT22;5664;48.606;13.456;2023-05-01T13:13:26;19.40;62.20
11214;DHT22;5664;48.606;13.456;2023-05-01T13:15:51;19.40;62.10
11214;DHT22;5664;48.606;13.456;2023-05-01T13:18:17;19.40;61.80
11214;DHT22;5664;48.606;13.456;2023-05-01T13:20:43;19.40;61.30
11214;DHT22;5664;48.606;13.456;2023-05-01T13:23:11;19.40;61.90
11214;DHT22;5664;48.606;13.456;2023-05-01T13:25:37;19.40;61.00
11214;DHT22;5664;48.606;13.456;2023-05-01T13:28:02;19.40;60.80
11214;DHT22;5664;48.606;13.456;2023-05-01T13:30:31;19.40;60.70
11214;DHT22;5664;48.606;13.456;2023-05-01T13:32:57;19.40;60.80
11214;DHT22;5664;48.606;13.456;2023-05-01T13:35:24;19.40;61.10
11214;DHT22;5664;48.606;13.456;2023-05-01T13:37:50;19.40;61.50
11214;DHT22;5664;48.606;13.456;2023-05-01T13:40:16;19.40;61.70
11214;DHT22;5664;48.606;13.456;2023-05-01T13:42:43;19.40;62.10
11214;DHT22;5664;48.606;13.456;2023-05-01T13:45:08;19.30;62.00
11214;DHT22;5664;48.606;13.456;2023-05-01T13:47:35;19.40;62.10
11214;DHT22;5664;48.606;13.456;2023-05-01T13:50:03;19.30;61.90
11214;DHT22;5664;48.606;13.456;2023-05-01T13:52:29;19.30;62.00
11214;DHT22;5664;48.606;13.456;2023-05-01T13:54:54;19.30;62.00
11214;DHT22;5664;48.606;13.456;2023-05-01T13:57:20;19.30;62.10
11214;DHT22;5664;48.606;13.456;2023-05-01T13:59:46;19.40;62.90
11214;DHT22;5664;48.606;13.456;2023-05-01T14:02:18;19.30;61.80
11214;DHT22;5664;48.606;13.456;2023-05-01T14:04:45;19.30;61.60
11214;DHT22;5664;48.606;13.456;2023-05-01T14:07:11;19.30;61.60
11214;DHT22;5664;48.606;13.456;2023-05-01T14:09:41;19.30;61.70
11214;DHT22;5664;48.606;13.456;2023-05-01T14:12:08;19.30;61.70
11214;DHT22;5664;48.606;13.456;2023-05-01T14:14:33;19.30;61.90
11214;DHT22;5664;48.606;13.456;2023-05-01T14:17:00;19.30;61.90
11214;DHT22;5664;48.606;13.456;2023-05-01T14:19:25;19.30;62.70
11214;DHT22;5664;48.606;13.456;2023-05-01T14:21:51;19.30;62.00
11214;DHT22;5664;48.606;13.456;2023-05-01T14:24:16;19.30;61.90
11214;DHT22;5664;48.606;13.456;2023-05-01T14:26:42;19.30;61.80
11214;DHT22;5664;48.606;13.456;2023-05-01T14:29:13;19.30;61.80
11214;DHT22;5664;48.606;13.456;2023-05-01T14:31:41;19.30;61.80
11214;DHT22;5664;48.606;13.456;2023-05-01T14:34:07;19.30;61.70
11214;DHT22;5664;48.606;13.456;2023-05-01T14:36:32;19.30;61.80
11214;DHT22;5664;48.606;13.456;2023-05-01T14:38:59;19.30;61.70
11214;DHT22;5664;48.606;13.456;2023-05-01T14:41:25;19.30;61.80
11214;DHT22;5664;48.606;13.456;2023-05-01T14:43:50;19.30;61.80
11214;DHT22;5664;48.606;13.456;2023-05-01T14:46:30;19.30;61.80
11214;DHT22;5664;48.606;13.456;2023-05-01T14:48:57;19.30;61.80
11214;DHT22;5664;48.606;13.456;2023-05-01T14:51:22;19.30;62.10
11214;DHT22;5664;48.606;13.456;2023-05-01T14:53:48;19.30;62.20
11214;DHT22;5664;48.606;13.456;2023-05-01T14:56:13;19.30;62.10
11214;DHT22;5664;48.606;13.456;2023-05-01T14:58:39;19.20;62.10
11214;DHT22;5664;48.606;13.456;2023-05-01T15:01:05;19.20;62.20
11214;DHT22;5664;48.606;13.456;2023-05-01T15:03:32;19.20;62.20
11214;DHT22;5664;48.606;13.456;2023-05-01T15:06:00;19.20;62.30
11214;DHT22;5664;48.606;13.456;2023-05-01T15:08:25;19.20;62.30
11214;DHT22;5664;48.606;13.456;2023-05-01T15:10:51;18.40;61.90
11214;DHT22;5664;48.606;13.456;2023-05-01T15:13:17;19.20;62.40
11214;DHT22;5664;48.606;13.456;2023-05-01T15:15:43;19.20;62.40
11214;DHT22;5664;48.606;13.456;2023-05-01T15:18:09;19.20;62.40
11214;DHT22;5664;48.606;13.456;2023-05-01T15:20:34;19.20;62.50
11214;DHT22;5664;48.606;13.456;2023-05-01T15:23:00;19.20;62.50
11214;DHT22;5664;48.606;13.456;2023-05-01T15:25:25;19.20;62.60
11214;DHT22;5664;48.606;13.456;2023-05-01T15:27:51;20.10;63.30
11214;DHT22;5664;48.606;13.456;2023-05-01T15:30:16;19.20;62.70
11214;DHT22;5664;48.606;13.456;2023-05-01T15:32:41;19.20;62.70
11214;DHT22;5664;48.606;13.456;2023-05-01T15:35:07;19.20;62.80
11214;DHT22;5664;48.606;13.456;2023-05-01T15:37:33;19.20;62.80
11214;DHT22;5664;48.606;13.456;2023-05-01T15:39:58;19.20;62.90
11214;DHT22;5664;48.606;13.456;2023-05-01T15:42:24;19.20;62.90
11214;DHT22;5664;48.606;13.456;2023-05-01T15:44:49;19.20;62.90
11214;DHT22;5664;48.606;13.456;2023-05-01T15:47:15;19.20;63.00
11214;DHT22;5664;48.606;13.456;2023-05-01T15:49:40;19.20;63.00
11214;DHT22;5664;48.606;13.456;2023-05-01T15:52:06;19.20;63.10
11214;DHT22;5664;48.606;13.456;2023-05-01T15:54:32;19.20;63.10
11214;DHT22;5664;48.606;13.456;2023-05-01T15:56:58;19.20;63.20